createdAt,value
2023-02-19T00:01:54.748Z,4.72
2023-02-19T00:04:23.851Z,4.57
2023-02-19T00:06:52.437Z,3.70
2023-02-19T00:09:21.649Z,3.85
2023-02-19T00:11:50.364Z,4.45
2023-02-19T00:14:20.615Z,3.97
2023-02-19T00:16:49.552Z,4.25
2023-02-19T00:19:21.144Z,3.40
2023-02-19T00:21:51.908Z,3.67
2023-02-19T00:24:20.711Z,3.85
2023-02-19T00:26:49.355Z,4.65
2023-02-19T00:29:19.928Z,4.53
2023-02-19T00:31:48.203Z,4.22
2023-02-19T00:34:16.419Z,2.65
2023-02-19T00:36:46.030Z,3.92
2023-02-19T00:39:18.262Z,3.17
2023-02-19T00:41:47.523Z,3.50
2023-02-19T00:44:15.709Z,3.97
2023-02-19T00:46:45.928Z,3.38
2023-02-19T00:49:18.908Z,3.30
2023-02-19T00:51:49.144Z,2.72
2023-02-19T00:54:18.175Z,3.92
2023-02-19T00:56:46.357Z,2.72
2023-02-19T00:59:14.559Z,3.78
2023-02-19T01:01:44.788Z,3.80
2023-02-19T01:04:13.402Z,4.40
2023-02-19T01:06:42.094Z,3.20
2023-02-19T01:09:11.620Z,2.95
2023-02-19T01:11:39.744Z,3.28
2023-02-19T01:14:07.988Z,1.95
2023-02-19T01:16:36.247Z,3.33
2023-02-19T01:19:04.677Z,2.83
2023-02-19T01:21:33.132Z,3.40
2023-02-19T01:24:01.263Z,3.67
2023-02-19T01:26:33.151Z,3.33
2023-02-19T01:29:02.248Z,2.63
2023-02-19T01:31:30.988Z,3.15
2023-02-19T01:34:01.649Z,2.75
2023-02-19T01:36:31.025Z,2.60
2023-02-19T01:39:03.799Z,4.70
2023-02-19T01:44:07.808Z,2.95
2023-02-19T01:46:37.193Z,2.77
2023-02-19T01:49:08.966Z,2.17
2023-02-19T01:51:39.229Z,2.75
2023-02-19T01:54:09.733Z,2.70
2023-02-19T01:56:43.346Z,1.77
2023-02-19T01:59:12.593Z,3.58
2023-02-19T02:01:42.240Z,3.13
2023-02-19T02:04:13.009Z,2.97
2023-02-19T02:06:48.046Z,2.35
2023-02-19T02:09:34.741Z,3.05
2023-02-19T02:12:04.293Z,2.45
2023-02-19T02:14:35.412Z,2.15
2023-02-19T02:17:15.452Z,3.28
2023-02-19T02:20:02.946Z,2.00
2023-02-19T02:22:37.132Z,2.05
2023-02-19T02:25:30.861Z,2.55
2023-02-19T02:28:18.177Z,2.55
2023-02-19T02:30:51.195Z,2.45
2023-02-19T02:33:26.372Z,1.98
2023-02-19T02:35:59.734Z,2.85
2023-02-19T02:38:31.320Z,2.97
2023-02-19T02:41:01.101Z,2.33
2023-02-19T02:43:29.316Z,2.35
2023-02-19T02:45:58.981Z,1.98
2023-02-19T02:48:37.059Z,2.90
2023-02-19T02:51:13.949Z,2.15
2023-02-19T02:54:13.477Z,1.55
2023-02-19T02:56:44.093Z,1.90
2023-02-19T02:59:14.850Z,1.77
2023-02-19T03:02:05.508Z,1.85
2023-02-19T03:05:00.271Z,2.97
2023-02-19T03:07:32.385Z,2.63
2023-02-19T03:10:04.180Z,2.20
2023-02-19T03:12:52.424Z,2.20
2023-02-19T03:15:45.789Z,1.88
2023-02-19T03:18:35.810Z,2.33
2023-02-19T03:21:07.563Z,1.88
2023-02-19T03:23:56.002Z,2.00
2023-02-19T03:26:26.671Z,1.80
2023-02-19T03:29:12.515Z,1.77
2023-02-19T03:31:44.583Z,1.35
2023-02-19T03:34:20.704Z,1.15
2023-02-19T03:36:59.106Z,1.50
2023-02-19T03:39:27.706Z,1.55
2023-02-19T03:42:04.552Z,1.90
2023-02-19T03:44:42.131Z,1.48
2023-02-19T03:47:17.238Z,1.60
2023-02-19T03:49:51.293Z,1.83
2023-02-19T03:52:25.834Z,1.50
2023-02-19T03:54:58.554Z,1.90
2023-02-19T03:57:35.849Z,2.13
2023-02-19T04:00:11.789Z,2.88
2023-02-19T04:02:45.334Z,2.03
2023-02-19T04:05:18.001Z,1.35
2023-02-19T04:07:50.034Z,1.80
2023-02-19T04:10:19.908Z,1.38
2023-02-19T04:12:51.634Z,2.33
2023-02-19T04:15:23.293Z,1.38
2023-02-19T04:17:57.106Z,1.95
2023-02-19T04:20:30.239Z,1.17
2023-02-19T04:22:59.235Z,2.72
2023-02-19T04:25:28.888Z,2.08
2023-02-19T04:27:57.091Z,2.42
2023-02-19T04:30:25.319Z,2.03
2023-02-19T04:32:53.468Z,2.05
2023-02-19T04:35:21.816Z,1.58
2023-02-19T04:37:51.344Z,1.38
2023-02-19T04:40:19.798Z,1.92
2023-02-19T04:42:47.937Z,1.65
2023-02-19T04:45:16.115Z,1.20
2023-02-19T04:47:44.337Z,2.08
2023-02-19T04:50:12.496Z,2.80
2023-02-19T04:52:40.708Z,1.38
2023-02-19T04:55:11.229Z,1.20
2023-02-19T04:57:39.334Z,1.10
2023-02-19T05:00:09.324Z,2.17
2023-02-19T05:02:37.720Z,1.13
2023-02-19T05:05:06.028Z,1.35
2023-02-19T05:07:35.390Z,2.05
2023-02-19T05:10:03.689Z,1.05
2023-02-19T05:12:33.385Z,1.17
2023-02-19T05:15:01.491Z,1.10
2023-02-19T05:17:29.650Z,1.88
2023-02-19T05:19:58.056Z,1.30
2023-02-19T05:22:26.226Z,1.27
2023-02-19T05:24:54.259Z,1.92
2023-02-19T05:27:22.367Z,1.05
2023-02-19T05:29:53.179Z,1.73
2023-02-19T05:32:21.372Z,2.25
2023-02-19T05:34:49.569Z,1.25
2023-02-19T05:37:17.782Z,0.85
2023-02-19T05:39:51.901Z,1.15
2023-02-19T05:42:20.774Z,1.73
2023-02-19T05:44:48.921Z,1.52
2023-02-19T05:47:18.486Z,1.95
2023-02-19T05:49:48.428Z,1.85
2023-02-19T05:52:16.420Z,1.58
2023-02-19T05:54:44.576Z,1.15
2023-02-19T05:57:12.632Z,1.27
2023-02-19T05:59:41.129Z,1.35
2023-02-19T06:02:11.094Z,0.93
2023-02-19T06:04:40.616Z,1.02
2023-02-19T06:07:08.833Z,1.15
2023-02-19T06:09:37.260Z,2.00
2023-02-19T06:12:05.918Z,1.40
2023-02-19T06:14:34.016Z,1.58
2023-02-19T06:17:02.179Z,1.58
2023-02-19T06:19:30.899Z,1.52
2023-02-19T06:22:00.418Z,2.85
2023-02-19T06:24:28.663Z,2.45
2023-02-19T06:26:56.747Z,1.00
2023-02-19T06:29:25.031Z,2.58
2023-02-19T06:31:53.541Z,1.40
2023-02-19T06:34:21.712Z,1.70
2023-02-19T06:36:50.613Z,2.50
2023-02-19T06:39:20.133Z,1.73
2023-02-19T06:41:48.500Z,1.42
2023-02-19T06:44:16.842Z,1.85
2023-02-19T06:46:45.016Z,1.88
2023-02-19T06:49:13.288Z,2.30
2023-02-19T06:51:41.574Z,1.80
2023-02-19T06:54:09.883Z,1.55
2023-02-19T06:56:40.776Z,1.48
2023-02-19T06:59:12.326Z,1.60
2023-02-19T07:01:41.457Z,1.60
2023-02-19T07:04:09.724Z,1.88
2023-02-19T07:06:38.913Z,2.47
2023-02-19T07:09:08.656Z,1.95
2023-02-19T07:11:40.014Z,2.70
2023-02-19T07:14:09.757Z,5.75
2023-02-19T07:16:39.010Z,3.70
2023-02-19T07:19:07.211Z,2.72
2023-02-19T07:21:37.757Z,2.50
2023-02-19T07:24:06.901Z,2.28
2023-02-19T07:26:35.388Z,2.80
2023-02-19T07:29:05.036Z,2.90
2023-02-19T07:31:33.442Z,4.22
2023-02-19T07:34:01.673Z,4.65
2023-02-19T07:36:29.780Z,4.25
2023-02-19T07:38:58.983Z,4.35
2023-02-19T07:41:28.325Z,3.55
2023-02-19T07:43:58.064Z,6.47
2023-02-19T07:46:27.644Z,4.18
2023-02-19T07:48:56.259Z,4.57
2023-02-19T07:51:24.637Z,5.32
2023-02-19T07:53:53.146Z,4.88
2023-02-19T07:56:21.382Z,4.43
2023-02-19T07:58:49.607Z,5.30
2023-02-19T08:01:19.631Z,6.07
2023-02-19T08:03:50.577Z,7.47
2023-02-19T08:06:18.764Z,7.43
2023-02-19T08:08:46.841Z,5.68
2023-02-19T08:11:32.295Z,10.43
2023-02-19T08:14:00.439Z,7.30
2023-02-19T08:16:41.928Z,6.20
2023-02-19T08:19:12.568Z,8.57
2023-02-19T08:21:41.094Z,6.85
2023-02-19T08:24:09.354Z,5.95
2023-02-19T08:26:42.932Z,5.20
2023-02-19T08:29:11.212Z,6.13
2023-02-19T08:31:39.551Z,7.30
2023-02-19T08:34:07.666Z,8.20
2023-02-19T08:36:37.159Z,10.63
2023-02-19T08:39:05.380Z,5.40
2023-02-19T08:41:33.496Z,9.25
2023-02-19T08:44:01.582Z,7.68
2023-02-19T08:46:29.736Z,11.57
2023-02-19T08:48:58.295Z,8.48
2023-02-19T08:51:26.458Z,6.50
2023-02-19T08:53:55.991Z,9.25
2023-02-19T08:56:24.122Z,8.02
2023-02-19T08:58:52.648Z,10.20
2023-02-19T09:01:21.009Z,10.13
2023-02-19T09:03:49.241Z,11.32
2023-02-19T09:06:19.199Z,6.65
2023-02-19T09:08:47.470Z,8.82
2023-02-19T09:11:17.166Z,8.63
2023-02-19T09:13:45.996Z,8.40
2023-02-19T09:16:14.087Z,7.28
2023-02-19T09:18:42.235Z,11.10
2023-02-19T09:21:10.734Z,7.22
2023-02-19T09:23:39.242Z,8.70
2023-02-19T09:26:10.160Z,9.52
2023-02-19T09:28:41.973Z,10.57
2023-02-19T09:31:12.748Z,9.50
2023-02-19T09:33:44.382Z,10.13
2023-02-19T09:36:13.231Z,8.70
2023-02-19T09:38:41.590Z,8.93
2023-02-19T09:41:15.419Z,7.68
2023-02-19T09:43:45.686Z,6.53
2023-02-19T09:46:26.393Z,10.93
2023-02-19T09:49:04.553Z,6.65
2023-02-19T09:51:35.682Z,5.25
2023-02-19T09:54:07.242Z,5.70
2023-02-19T09:56:35.941Z,7.63
2023-02-19T09:59:07.142Z,7.55
2023-02-19T10:01:40.568Z,7.75
2023-02-19T10:04:10.916Z,7.47
2023-02-19T10:06:39.144Z,6.05
2023-02-19T10:09:21.177Z,5.07
2023-02-19T10:11:51.023Z,7.97
2023-02-19T10:14:29.445Z,7.82
2023-02-19T10:17:00.767Z,4.80
2023-02-19T10:19:30.003Z,5.60
2023-02-19T10:21:58.186Z,8.32
2023-02-19T10:24:30.452Z,8.35
2023-02-19T10:26:58.755Z,5.05
2023-02-19T10:29:28.487Z,6.50
2023-02-19T10:32:21.097Z,6.60
2023-02-19T10:34:50.066Z,5.73
2023-02-19T10:37:19.502Z,6.35
2023-02-19T10:39:51.775Z,6.32
2023-02-19T10:42:22.811Z,5.30
2023-02-19T10:44:58.570Z,6.65
2023-02-19T10:47:28.239Z,6.15
2023-02-19T10:49:59.492Z,7.65
2023-02-19T10:52:30.868Z,4.88
2023-02-19T10:55:18.429Z,6.07
2023-02-19T10:57:46.987Z,4.63
2023-02-19T11:00:26.874Z,4.15
2023-02-19T11:03:23.846Z,4.78
2023-02-19T11:05:58.867Z,4.72
2023-02-19T11:08:27.321Z,5.13
2023-02-19T11:10:56.237Z,4.72
2023-02-19T11:13:30.444Z,3.67
2023-02-19T11:16:01.215Z,4.13
2023-02-19T11:18:32.462Z,5.93
2023-02-19T11:21:03.144Z,4.13
2023-02-19T11:23:35.276Z,3.20
2023-02-19T11:26:06.427Z,3.70
2023-02-19T11:28:37.400Z,2.90
2023-02-19T11:31:24.051Z,2.72
2023-02-19T11:33:56.988Z,3.53
2023-02-19T11:36:30.322Z,3.47
2023-02-19T11:39:00.838Z,3.03
2023-02-19T11:41:59.907Z,3.20
2023-02-19T11:44:40.495Z,4.97
2023-02-19T11:47:45.126Z,3.67
2023-02-19T11:50:22.784Z,3.85
2023-02-19T11:53:07.943Z,4.82
2023-02-19T11:55:53.011Z,3.78
2023-02-19T11:58:48.109Z,3.00
2023-02-19T12:01:24.759Z,2.85
2023-02-19T12:04:21.950Z,3.00
2023-02-19T12:07:01.853Z,2.10
2023-02-19T12:09:41.674Z,3.92
2023-02-19T12:12:25.644Z,3.55
2023-02-19T12:15:32.172Z,2.47
2023-02-19T12:18:34.804Z,2.33
2023-02-19T12:21:19.252Z,2.28
2023-02-19T12:24:02.474Z,3.53
2023-02-19T12:26:35.284Z,3.38
2023-02-19T12:29:22.395Z,3.42
2023-02-19T12:32:27.293Z,2.78
2023-02-19T12:35:25.578Z,4.03
2023-02-19T12:38:03.998Z,2.30
2023-02-19T12:40:44.666Z,2.33
2023-02-19T12:43:19.016Z,2.20
2023-02-19T12:45:52.565Z,2.50
2023-02-19T12:48:29.642Z,2.95
2023-02-19T12:51:03.814Z,2.47
2023-02-19T12:53:41.180Z,2.65
2023-02-19T12:56:14.948Z,2.10
2023-02-19T12:58:47.581Z,2.22
2023-02-19T13:01:22.243Z,2.40
2023-02-19T13:03:55.803Z,3.00
2023-02-19T13:06:36.778Z,2.28
2023-02-19T13:09:14.237Z,1.70
2023-02-19T13:11:46.461Z,2.10
2023-02-19T13:14:23.465Z,3.00
2023-02-19T13:17:01.307Z,3.97
2023-02-19T13:19:31.550Z,3.97
2023-02-19T13:22:27.635Z,6.53
2023-02-19T13:24:58.424Z,5.88
2023-02-19T13:27:54.347Z,6.93
2023-02-19T13:31:04.253Z,4.10
2023-02-19T13:33:45.192Z,5.35
2023-02-19T13:36:17.860Z,3.25
2023-02-19T13:38:48.268Z,4.22
2023-02-19T13:41:29.486Z,5.45
2023-02-19T13:44:01.707Z,6.68
2023-02-19T13:46:42.730Z,3.83
2023-02-19T13:49:49.431Z,3.33
2023-02-19T13:52:40.529Z,2.55
2023-02-19T13:55:49.695Z,3.90
2023-02-19T13:58:51.196Z,3.33
2023-02-19T14:01:41.423Z,2.63
2023-02-19T14:04:21.076Z,4.15
2023-02-19T14:07:46.371Z,3.72
2023-02-19T14:10:36.147Z,4.57
2023-02-19T14:13:04.304Z,5.07
2023-02-19T14:15:44.189Z,5.22
2023-02-19T14:18:46.239Z,3.17
2023-02-19T14:21:23.507Z,2.20
2023-02-19T14:23:53.984Z,2.58
2023-02-19T14:26:23.215Z,4.28
2023-02-19T14:28:53.879Z,2.80
2023-02-19T14:31:33.309Z,3.38
2023-02-19T14:34:06.658Z,5.65
2023-02-19T14:36:48.620Z,3.60
2023-02-19T14:39:20.894Z,4.32
2023-02-19T14:41:52.017Z,6.05
2023-02-19T14:44:25.008Z,3.47
2023-02-19T14:46:58.537Z,3.47
2023-02-19T14:49:31.836Z,6.22
2023-02-19T14:54:40.135Z,3.28
2023-02-19T14:57:16.121Z,4.22
2023-02-19T14:59:55.377Z,4.05
2023-02-19T15:02:25.955Z,5.25
2023-02-19T15:04:56.491Z,4.45
2023-02-19T15:07:27.634Z,6.35
2023-02-19T15:10:03.662Z,4.55
2023-02-19T15:12:37.368Z,3.28
2023-02-19T15:15:08.328Z,2.88
2023-02-19T15:17:41.734Z,3.58
2023-02-19T15:20:18.450Z,3.38
2023-02-19T15:22:47.376Z,3.05
2023-02-19T15:25:19.187Z,4.03
2023-02-19T15:27:49.346Z,2.42
2023-02-19T15:30:22.984Z,2.13
2023-02-19T15:32:55.827Z,3.20
2023-02-19T15:35:27.462Z,2.97
2023-02-19T15:37:56.535Z,4.40
2023-02-19T15:40:30.948Z,4.00
2023-02-19T15:43:01.476Z,3.45
2023-02-19T15:45:33.337Z,2.25
2023-02-19T15:48:06.580Z,4.38
2023-02-19T15:50:38.771Z,2.83
2023-02-19T15:53:13.617Z,3.42
2023-02-19T15:55:46.042Z,6.72
2023-02-19T15:58:19.071Z,1.57
2023-02-19T16:03:21.012Z,3.47
2023-02-19T16:06:01.408Z,2.47
2023-02-19T16:08:31.998Z,2.92
2023-02-19T16:11:02.287Z,2.45
2023-02-19T16:13:32.093Z,3.42
2023-02-19T16:16:04.823Z,3.40
2023-02-19T16:18:34.004Z,6.18
2023-02-19T16:21:09.331Z,2.92
2023-02-19T16:23:43.516Z,3.05
2023-02-19T16:26:13.061Z,3.17
2023-02-19T16:28:42.909Z,4.13
2023-02-19T16:31:14.604Z,2.28
2023-02-19T16:33:46.126Z,2.75
2023-02-19T16:36:35.492Z,3.85
2023-02-19T16:39:24.504Z,2.97
2023-02-19T16:42:15.558Z,4.60
2023-02-19T16:44:48.048Z,5.57
2023-02-19T16:47:32.730Z,5.38
2023-02-19T16:50:05.928Z,4.22
2023-02-19T16:52:42.328Z,3.83
2023-02-19T16:55:14.666Z,2.53
2023-02-19T16:57:45.774Z,4.07
2023-02-19T17:00:18.626Z,10.77
2023-02-19T17:02:48.409Z,2.67
2023-02-19T17:05:18.266Z,2.38
2023-02-19T17:07:49.000Z,3.55
2023-02-19T17:10:19.528Z,3.75
2023-02-19T17:12:48.215Z,2.63
2023-02-19T17:15:16.839Z,4.18
2023-02-19T17:17:45.892Z,2.90
2023-02-19T17:20:24.204Z,3.72
2023-02-19T17:22:55.279Z,4.38
2023-02-19T17:25:24.346Z,3.20
2023-02-19T17:27:52.948Z,2.88
2023-02-19T17:30:27.928Z,2.35
2023-02-19T17:32:56.489Z,2.03
2023-02-19T17:35:25.352Z,2.63
2023-02-19T17:38:09.566Z,2.72
2023-02-19T17:40:38.658Z,2.17
2023-02-19T17:43:08.014Z,2.05
2023-02-19T17:45:36.647Z,2.33
2023-02-19T17:48:06.699Z,1.75
2023-02-19T17:50:35.460Z,2.80
2023-02-19T17:53:05.418Z,3.65
2023-02-19T17:55:34.596Z,1.45
2023-02-19T17:58:06.172Z,3.17
2023-02-19T18:00:35.364Z,2.13
2023-02-19T18:03:05.535Z,1.77
2023-02-19T18:05:34.017Z,2.00
2023-02-19T18:08:02.432Z,2.38
2023-02-19T18:10:32.745Z,3.05
2023-02-19T18:13:01.313Z,2.08
2023-02-19T18:15:32.735Z,1.52
2023-02-19T18:18:01.129Z,2.17
2023-02-19T18:20:31.536Z,1.55
2023-02-19T18:23:00.128Z,1.95
2023-02-19T18:25:34.153Z,1.38
2023-02-19T18:30:31.340Z,2.08
2023-02-19T18:32:59.771Z,1.50
2023-02-19T18:35:28.022Z,2.00
2023-02-19T18:37:56.677Z,2.00
2023-02-19T18:40:26.472Z,1.67
2023-02-19T18:42:56.464Z,4.55
2023-02-19T18:45:28.146Z,2.28
2023-02-19T18:47:56.579Z,3.30
2023-02-19T18:50:25.021Z,1.63
2023-02-19T18:52:53.545Z,2.22
2023-02-19T18:55:21.700Z,2.38
2023-02-19T18:57:50.352Z,1.63
2023-02-19T19:00:25.543Z,1.48
2023-02-19T19:02:57.860Z,1.70
2023-02-19T19:05:26.989Z,2.22
2023-02-19T19:07:59.526Z,5.95
2023-02-19T19:10:30.990Z,1.92
2023-02-19T19:12:59.662Z,3.17
2023-02-19T19:15:29.481Z,2.53
2023-02-19T19:17:59.832Z,2.00
2023-02-19T19:20:29.155Z,2.80
2023-02-19T19:22:57.600Z,1.75
2023-02-19T19:25:26.029Z,4.60
2023-02-19T19:27:56.908Z,31.35
2023-02-19T19:30:26.626Z,70.15
2023-02-19T19:32:57.445Z,86.97
2023-02-19T19:35:28.581Z,84.40
2023-02-19T19:37:56.934Z,93.68
2023-02-19T19:40:25.960Z,84.53
2023-02-19T19:42:54.344Z,66.00
2023-02-19T19:45:33.577Z,78.13
2023-02-19T19:48:05.315Z,82.00
2023-02-19T19:50:34.008Z,67.88
2023-02-19T19:53:02.491Z,61.88
2023-02-19T19:55:31.007Z,64.43
2023-02-19T19:58:00.566Z,59.05
2023-02-19T20:00:29.154Z,50.22
2023-02-19T20:02:57.850Z,45.70
2023-02-19T20:05:31.563Z,51.33
2023-02-19T20:08:00.307Z,56.40
2023-02-19T20:10:28.735Z,56.60
2023-02-19T20:12:57.173Z,50.38
2023-02-19T20:15:25.649Z,51.50
2023-02-19T20:17:54.159Z,53.03
2023-02-19T20:20:22.706Z,54.40
2023-02-19T20:22:53.058Z,48.03
2023-02-19T20:25:23.238Z,45.72
2023-02-19T20:27:55.920Z,48.80
2023-02-19T20:30:26.023Z,47.50
2023-02-19T20:32:55.143Z,46.72
2023-02-19T20:35:26.514Z,43.65
2023-02-19T20:37:56.159Z,46.88
2023-02-19T20:40:27.454Z,41.33
2023-02-19T20:42:56.001Z,44.80
2023-02-19T20:45:24.616Z,40.60
2023-02-19T20:47:53.140Z,34.35
2023-02-19T20:50:23.290Z,38.20
2023-02-19T20:52:51.680Z,36.28
2023-02-19T20:55:21.534Z,31.15
2023-02-19T20:57:49.642Z,29.45
2023-02-19T21:00:22.446Z,29.85
2023-02-19T21:02:51.672Z,31.40
2023-02-19T21:05:20.078Z,27.88
2023-02-19T21:07:48.434Z,27.40
2023-02-19T21:10:20.989Z,30.77
2023-02-19T21:12:50.643Z,25.90
2023-02-19T21:15:20.111Z,29.27
2023-02-19T21:17:49.117Z,28.40
2023-02-19T21:20:18.877Z,24.80
2023-02-19T21:22:47.433Z,23.15
2023-02-19T21:25:15.672Z,28.05
2023-02-19T21:27:45.140Z,20.58
2023-02-19T21:30:14.558Z,23.85
2023-02-19T21:32:42.699Z,22.55
2023-02-19T21:35:10.861Z,18.67
2023-02-19T21:37:42.812Z,19.33
2023-02-19T21:40:14.399Z,17.60
2023-02-19T21:42:42.578Z,21.30
2023-02-19T21:45:12.276Z,18.80
2023-02-19T21:47:40.481Z,15.38
2023-02-19T21:50:09.592Z,16.88
2023-02-19T21:52:37.945Z,14.93
2023-02-19T21:55:07.440Z,15.25
2023-02-19T21:57:35.702Z,13.85
2023-02-19T22:00:05.641Z,13.93
2023-02-19T22:02:38.040Z,16.00
2023-02-19T22:05:06.746Z,12.65
2023-02-19T22:07:34.978Z,11.20
2023-02-19T22:10:09.865Z,14.53
2023-02-19T22:12:40.967Z,13.38
2023-02-19T22:15:09.498Z,11.32
2023-02-19T22:17:39.492Z,14.23
2023-02-19T22:20:08.742Z,11.30
2023-02-19T22:22:36.975Z,11.93
2023-02-19T22:25:05.322Z,15.05
2023-02-19T22:27:33.473Z,10.20
2023-02-19T22:30:02.415Z,11.27
2023-02-19T22:32:31.295Z,10.48
2023-02-19T22:35:00.892Z,7.32
2023-02-19T22:37:29.739Z,9.38
2023-02-19T22:39:57.886Z,10.15
2023-02-19T22:42:26.014Z,11.27
2023-02-19T22:44:54.090Z,8.63
2023-02-19T22:47:22.405Z,10.30
2023-02-19T22:49:52.688Z,9.23
2023-02-19T22:52:24.032Z,8.38
2023-02-19T22:54:53.697Z,9.35
2023-02-19T22:57:21.961Z,6.57
2023-02-19T22:59:50.125Z,8.57
2023-02-19T23:02:18.764Z,7.78
2023-02-19T23:04:46.944Z,6.70
2023-02-19T23:07:15.124Z,7.03
2023-02-19T23:09:46.048Z,9.15
2023-02-19T23:12:14.245Z,7.40
2023-02-19T23:14:42.800Z,5.95
2023-02-19T23:17:11.031Z,6.57
2023-02-19T23:19:39.550Z,6.68
2023-02-19T23:22:07.904Z,5.25
2023-02-19T23:24:36.346Z,6.93
2023-02-19T23:27:05.864Z,5.78
2023-02-19T23:29:33.986Z,6.90
2023-02-19T23:32:02.364Z,7.22
2023-02-19T23:34:30.736Z,5.07
2023-02-19T23:36:59.595Z,5.18
2023-02-19T23:39:27.909Z,7.18
2023-02-19T23:41:58.375Z,5.68
2023-02-19T23:44:28.219Z,6.35
2023-02-19T23:46:56.380Z,6.10
2023-02-19T23:49:24.939Z,7.03
2023-02-19T23:51:53.199Z,4.63
2023-02-19T23:54:21.639Z,5.68
2023-02-19T23:56:53.110Z,6.25
2023-02-19T23:59:21.232Z,5.63
